createdAt,value
2017-11-30T00:00:41.262Z,0.20
2017-11-30T00:03:08.714Z,0.40
2017-11-30T00:05:36.179Z,0.40
2017-11-30T00:08:03.618Z,0.40
2017-11-30T00:10:31.079Z,0.50
2017-11-30T00:12:58.551Z,0.40
2017-11-30T00:15:26.015Z,0.30
2017-11-30T00:17:53.459Z,0.40
2017-11-30T00:20:20.923Z,0.40
2017-11-30T00:22:48.374Z,0.40
2017-11-30T00:25:15.827Z,0.40
2017-11-30T00:27:43.284Z,0.50
2017-11-30T00:30:10.738Z,0.50
2017-11-30T00:32:38.189Z,0.40
2017-11-30T00:35:05.651Z,0.40
2017-11-30T00:37:33.096Z,0.30
2017-11-30T00:40:00.555Z,0.20
2017-11-30T00:42:39.674Z,0.30
2017-11-30T00:45:07.131Z,0.20
2017-11-30T00:47:34.574Z,0.40
2017-11-30T00:50:02.037Z,0.50
2017-11-30T00:52:29.494Z,0.50
2017-11-30T00:54:56.950Z,0.50
2017-11-30T00:57:24.396Z,0.60
2017-11-30T00:59:51.866Z,0.70
2017-11-30T01:02:19.358Z,0.70
2017-11-30T01:04:46.910Z,0.90
2017-11-30T01:07:14.366Z,0.80
2017-11-30T01:09:41.819Z,0.80
2017-11-30T01:12:09.387Z,0.80
2017-11-30T01:14:36.839Z,0.80
2017-11-30T01:17:04.296Z,0.80
2017-11-30T01:19:31.743Z,0.70
2017-11-30T01:21:59.199Z,0.70
2017-11-30T01:24:26.678Z,0.70
2017-11-30T01:26:54.131Z,0.70
2017-11-30T01:29:21.691Z,0.80
2017-11-30T01:31:49.153Z,0.90
2017-11-30T01:34:16.597Z,0.90
2017-11-30T01:36:44.060Z,0.90
2017-11-30T01:39:11.507Z,1.00
2017-11-30T01:41:38.970Z,1.00
2017-11-30T01:44:06.423Z,1.00
2017-11-30T01:46:33.879Z,1.10
2017-11-30T01:49:01.343Z,1.00
2017-11-30T01:51:28.797Z,1.00
2017-11-30T01:53:56.243Z,1.20
2017-11-30T01:56:23.702Z,0.90
2017-11-30T01:58:51.157Z,0.70
2017-11-30T02:01:18.637Z,0.50
2017-11-30T02:03:46.068Z,0.40
2017-11-30T02:06:13.610Z,0.30
2017-11-30T02:08:41.064Z,0.30
2017-11-30T02:11:08.534Z,0.50
2017-11-30T02:13:35.979Z,0.70
2017-11-30T02:16:03.431Z,0.70
2017-11-30T02:18:30.927Z,0.60
2017-11-30T02:20:58.375Z,0.50
2017-11-30T02:23:25.838Z,0.50
2017-11-30T02:25:53.291Z,0.40
2017-11-30T02:28:20.746Z,0.40
2017-11-30T02:30:48.381Z,0.40
2017-11-30T02:33:15.843Z,0.40
2017-11-30T02:35:43.334Z,0.40
2017-11-30T02:38:10.790Z,0.40
2017-11-30T02:40:38.237Z,0.50
2017-11-30T02:43:05.702Z,0.50
2017-11-30T02:45:33.152Z,0.70
2017-11-30T02:48:00.612Z,0.90
2017-11-30T02:50:28.060Z,0.80
2017-11-30T02:52:55.515Z,0.90
2017-11-30T02:55:22.967Z,1.00
2017-11-30T02:57:50.534Z,1.00
2017-11-30T03:00:17.978Z,0.90
2017-11-30T03:02:45.438Z,0.80
2017-11-30T03:05:12.883Z,0.60
2017-11-30T03:07:40.340Z,0.60
2017-11-30T03:10:07.790Z,0.60
2017-11-30T03:12:35.282Z,0.50
2017-11-30T03:15:02.731Z,0.60
2017-11-30T03:17:30.298Z,0.60
2017-11-30T03:19:57.751Z,0.70
2017-11-30T03:22:25.319Z,0.70
2017-11-30T03:24:52.763Z,0.80
2017-11-30T03:27:20.212Z,0.80
2017-11-30T03:29:47.788Z,0.80
2017-11-30T03:32:15.240Z,0.70
2017-11-30T03:34:42.701Z,0.70
2017-11-30T03:37:10.147Z,0.80
2017-11-30T03:39:37.611Z,0.80
2017-11-30T03:42:05.059Z,0.90
2017-11-30T03:44:32.514Z,0.90
2017-11-30T03:46:59.969Z,0.90
2017-11-30T03:49:27.427Z,0.90
2017-11-30T03:51:54.897Z,1.00
2017-11-30T03:54:22.348Z,1.00
2017-11-30T03:56:49.794Z,1.00
2017-11-30T03:59:17.256Z,1.00
2017-11-30T04:01:44.704Z,1.10
2017-11-30T04:04:12.179Z,1.00
2017-11-30T04:06:39.633Z,1.00
2017-11-30T04:09:07.087Z,1.00
2017-11-30T04:11:34.534Z,1.00
2017-11-30T04:14:02.001Z,1.00
2017-11-30T04:16:29.453Z,1.10
2017-11-30T04:18:56.915Z,1.10
2017-11-30T04:21:24.478Z,1.10
2017-11-30T04:23:51.939Z,1.00
2017-11-30T04:26:19.392Z,1.00
2017-11-30T04:28:46.847Z,0.90
2017-11-30T04:31:14.294Z,0.90
2017-11-30T04:33:41.863Z,0.90
2017-11-30T04:36:09.320Z,0.90
2017-11-30T04:38:36.767Z,0.90
2017-11-30T04:41:04.229Z,1.00
2017-11-30T04:43:31.681Z,1.00
2017-11-30T04:45:59.139Z,1.20
2017-11-30T04:48:26.594Z,1.30
2017-11-30T04:50:54.058Z,1.30
2017-11-30T04:53:21.505Z,1.20
2017-11-30T04:55:48.968Z,1.20
2017-11-30T04:58:16.527Z,1.20
2017-11-30T05:00:44.096Z,1.10
2017-11-30T05:03:11.546Z,1.00
2017-11-30T05:05:39.007Z,1.00
2017-11-30T05:08:06.566Z,1.10
2017-11-30T05:10:34.019Z,1.10
2017-11-30T05:13:01.467Z,1.20
2017-11-30T05:15:29.036Z,1.20
2017-11-30T05:17:56.483Z,1.30
2017-11-30T05:20:23.931Z,1.30
2017-11-30T05:22:51.376Z,1.30
2017-11-30T05:25:18.829Z,1.30
2017-11-30T05:27:48.822Z,1.40
2017-11-30T05:30:17.054Z,1.40
2017-11-30T05:32:44.490Z,1.40
2017-11-30T05:35:11.947Z,1.40
2017-11-30T05:37:39.395Z,1.40
2017-11-30T05:40:06.847Z,1.50
2017-11-30T05:42:34.309Z,1.40
2017-11-30T05:45:01.794Z,1.50
2017-11-30T05:47:29.234Z,1.50
2017-11-30T05:49:56.690Z,1.40
2017-11-30T05:52:24.134Z,1.40
2017-11-30T05:54:51.574Z,1.50
2017-11-30T05:57:19.074Z,1.40
2017-11-30T05:59:46.520Z,1.40
2017-11-30T06:02:13.972Z,1.40
2017-11-30T06:04:41.421Z,1.40
2017-11-30T06:07:08.879Z,1.40
2017-11-30T06:09:36.356Z,1.40
2017-11-30T06:12:03.823Z,1.40
2017-11-30T06:14:31.272Z,1.30
2017-11-30T06:16:58.726Z,1.30
2017-11-30T06:19:26.168Z,1.30
2017-11-30T06:21:53.626Z,1.30
2017-11-30T06:24:21.095Z,1.30
2017-11-30T06:26:48.561Z,1.30
2017-11-30T06:29:16.003Z,1.20
2017-11-30T06:31:43.459Z,1.30
2017-11-30T06:34:10.905Z,1.30
2017-11-30T06:36:38.372Z,1.30
2017-11-30T06:39:05.819Z,1.30
2017-11-30T06:41:33.274Z,1.40
2017-11-30T06:44:00.729Z,1.40
2017-11-30T06:46:28.178Z,1.50
2017-11-30T06:48:55.623Z,1.40
2017-11-30T06:51:23.085Z,1.40
2017-11-30T06:53:50.529Z,1.50
2017-11-30T06:56:17.978Z,1.40
2017-11-30T06:58:46.194Z,1.50
2017-11-30T07:01:13.658Z,1.40
2017-11-30T07:03:41.101Z,1.40
2017-11-30T07:06:08.549Z,1.40
2017-11-30T07:08:36.003Z,1.50
2017-11-30T07:11:03.457Z,1.40
2017-11-30T07:13:30.917Z,1.50
2017-11-30T07:15:58.368Z,1.50
2017-11-30T07:18:25.847Z,1.40
2017-11-30T07:20:53.293Z,1.50
2017-11-30T07:23:20.775Z,1.40
2017-11-30T07:25:48.335Z,1.50
2017-11-30T07:28:15.795Z,1.50
2017-11-30T07:30:43.235Z,1.60
2017-11-30T07:33:10.698Z,1.60
2017-11-30T07:35:38.146Z,1.60
2017-11-30T07:38:05.612Z,1.70
2017-11-30T07:40:33.076Z,1.70
2017-11-30T07:43:00.525Z,1.70
2017-11-30T07:45:27.971Z,1.80
2017-11-30T07:47:55.433Z,1.70
2017-11-30T07:50:22.882Z,1.70
2017-11-30T07:52:50.356Z,1.70
2017-11-30T07:55:17.798Z,1.70
2017-11-30T07:57:45.253Z,1.70
2017-11-30T08:00:12.708Z,1.80
2017-11-30T08:02:40.158Z,1.70
2017-11-30T08:05:07.608Z,1.70
2017-11-30T08:07:35.047Z,1.80
2017-11-30T08:10:02.482Z,1.90
2017-11-30T08:12:30.718Z,1.90
2017-11-30T08:14:58.186Z,1.90
2017-11-30T08:17:25.635Z,1.90
2017-11-30T08:19:53.226Z,1.90
2017-11-30T08:22:20.762Z,2.00
2017-11-30T08:24:48.214Z,2.00
2017-11-30T08:27:15.663Z,2.00
2017-11-30T08:29:43.115Z,2.00
2017-11-30T08:32:10.573Z,2.10
2017-11-30T08:34:38.015Z,2.30
2017-11-30T08:37:05.462Z,2.30
2017-11-30T08:39:32.921Z,2.30
2017-11-30T08:42:00.412Z,2.40
2017-11-30T08:44:27.862Z,2.30
2017-11-30T08:46:55.310Z,2.30
2017-11-30T08:49:22.763Z,2.20
2017-11-30T08:51:50.211Z,2.30
2017-11-30T08:54:17.669Z,2.30
2017-11-30T08:56:45.116Z,2.40
2017-11-30T08:59:12.566Z,2.40
2017-11-30T09:01:40.075Z,2.40
2017-11-30T09:04:07.531Z,2.50
2017-11-30T09:06:35.087Z,2.50
2017-11-30T09:09:02.538Z,2.50
2017-11-30T09:11:29.983Z,2.50
2017-11-30T09:13:57.445Z,2.40
2017-11-30T09:16:24.888Z,2.40
2017-11-30T09:18:52.336Z,2.50
2017-11-30T09:21:19.774Z,2.60
2017-11-30T09:23:47.279Z,2.60
2017-11-30T09:26:14.727Z,2.80
2017-11-30T09:28:42.177Z,2.90
2017-11-30T09:31:09.631Z,3.10
2017-11-30T09:33:37.075Z,3.00
2017-11-30T09:36:04.531Z,3.00
2017-11-30T09:38:31.978Z,2.90
2017-11-30T09:40:59.428Z,2.80
2017-11-30T09:43:26.929Z,2.80
2017-11-30T09:45:54.394Z,2.80
2017-11-30T09:48:21.829Z,2.80
2017-11-30T09:50:49.290Z,2.90
2017-11-30T09:53:16.734Z,2.80
2017-11-30T09:55:44.185Z,2.80
2017-11-30T09:58:11.622Z,2.80
2017-11-30T10:00:39.075Z,2.80
2017-11-30T10:03:06.582Z,2.80
2017-11-30T10:05:34.031Z,2.70
2017-11-30T10:08:01.500Z,2.50
2017-11-30T10:10:28.950Z,2.50
2017-11-30T10:12:56.396Z,2.40
2017-11-30T10:15:23.842Z,2.40
2017-11-30T10:17:51.290Z,2.40
2017-11-30T10:20:18.738Z,2.40
2017-11-30T10:22:46.184Z,2.30
2017-11-30T10:25:14.401Z,2.50
2017-11-30T10:27:41.870Z,2.40
2017-11-30T10:30:09.328Z,2.50
2017-11-30T10:32:36.778Z,2.40
2017-11-30T10:35:04.236Z,2.60
2017-11-30T10:37:31.679Z,2.60
2017-11-30T10:39:59.156Z,2.50
2017-11-30T10:42:26.601Z,2.50
2017-11-30T10:44:54.059Z,2.50
2017-11-30T10:47:21.515Z,2.60
2017-11-30T10:49:48.967Z,2.50
2017-11-30T10:52:16.445Z,2.50
2017-11-30T10:54:43.890Z,2.70
2017-11-30T10:57:11.351Z,2.80
2017-11-30T10:59:38.819Z,3.00
2017-11-30T11:02:06.279Z,2.90
2017-11-30T11:04:33.731Z,2.90
2017-11-30T11:07:01.187Z,3.00
2017-11-30T11:09:28.634Z,3.00
2017-11-30T11:11:56.094Z,3.00
2017-11-30T11:14:23.553Z,3.10
2017-11-30T11:16:51.003Z,3.10
2017-11-30T11:19:18.455Z,3.20
2017-11-30T11:21:45.910Z,3.20
2017-11-30T11:24:13.368Z,3.20
2017-11-30T11:26:40.833Z,3.40
2017-11-30T11:29:08.282Z,3.30
2017-11-30T11:31:35.851Z,3.40
2017-11-30T11:34:03.302Z,3.60
2017-11-30T11:36:30.759Z,3.50
2017-11-30T11:38:58.204Z,3.40
2017-11-30T11:41:25.670Z,3.40
2017-11-30T11:43:53.130Z,3.40
2017-11-30T11:46:20.582Z,3.40
2017-11-30T11:48:48.027Z,3.50
2017-11-30T11:51:15.509Z,3.40
2017-11-30T11:53:42.952Z,3.40
2017-11-30T11:56:10.409Z,3.40
2017-11-30T11:58:37.875Z,3.50
2017-11-30T12:01:05.322Z,3.50
2017-11-30T12:03:32.895Z,3.80
2017-11-30T12:06:00.338Z,3.90
2017-11-30T12:08:27.795Z,4.00
2017-11-30T12:10:55.247Z,4.00
2017-11-30T12:13:22.825Z,4.00
2017-11-30T12:15:50.267Z,4.20
2017-11-30T12:18:17.826Z,4.40
2017-11-30T12:20:45.279Z,4.40
2017-11-30T12:23:12.733Z,4.20
2017-11-30T12:25:40.215Z,4.20
2017-11-30T12:28:07.654Z,4.30
2017-11-30T12:30:35.111Z,4.30
2017-11-30T12:33:02.565Z,4.40
2017-11-30T12:35:30.016Z,4.10
2017-11-30T12:37:57.472Z,4.00
2017-11-30T12:40:24.922Z,4.00
2017-11-30T12:42:52.387Z,3.90
2017-11-30T12:45:19.830Z,3.70
2017-11-30T12:47:47.288Z,3.70
2017-11-30T12:50:14.739Z,3.60
2017-11-30T12:52:42.198Z,3.50
2017-11-30T12:55:09.691Z,3.70
2017-11-30T12:57:37.136Z,3.60
2017-11-30T13:00:04.589Z,3.70
2017-11-30T13:02:32.161Z,3.70
2017-11-30T13:04:59.617Z,3.60
2017-11-30T13:07:27.066Z,3.60
2017-11-30T13:09:54.528Z,3.60
2017-11-30T13:12:22.080Z,3.60
2017-11-30T13:14:49.542Z,3.70
2017-11-30T13:17:16.984Z,3.90
2017-11-30T13:19:44.444Z,4.10
2017-11-30T13:22:11.899Z,4.30
2017-11-30T13:24:39.365Z,4.20
2017-11-30T13:27:06.821Z,4.10
2017-11-30T13:29:34.277Z,4.10
2017-11-30T13:32:01.745Z,4.10
2017-11-30T13:34:29.204Z,4.00
2017-11-30T13:36:56.653Z,3.90
2017-11-30T13:39:24.204Z,4.00
2017-11-30T13:41:51.664Z,4.10
2017-11-30T13:44:19.113Z,4.20
2017-11-30T13:46:46.573Z,4.30
2017-11-30T13:49:14.142Z,4.60
2017-11-30T13:51:41.588Z,4.60
2017-11-30T13:54:09.053Z,4.50
2017-11-30T13:56:36.608Z,4.50
2017-11-30T13:59:04.177Z,4.50
2017-11-30T14:01:31.613Z,4.40
2017-11-30T14:03:59.070Z,4.30
2017-11-30T14:06:26.523Z,4.20
2017-11-30T14:08:53.977Z,3.90
2017-11-30T14:11:21.430Z,3.90
2017-11-30T14:13:48.897Z,3.90
2017-11-30T14:16:16.366Z,3.90
2017-11-30T14:18:43.822Z,3.80
2017-11-30T14:21:11.385Z,3.70
2017-11-30T14:23:38.947Z,3.60
2017-11-30T14:26:06.397Z,3.60
2017-11-30T14:28:33.842Z,3.60
2017-11-30T14:31:01.292Z,3.50
2017-11-30T14:33:28.750Z,3.30
2017-11-30T14:35:56.202Z,3.20
2017-11-30T14:38:23.653Z,3.20
2017-11-30T14:40:51.138Z,3.10
2017-11-30T14:43:18.595Z,3.10
2017-11-30T14:45:46.154Z,3.20
2017-11-30T14:48:13.598Z,3.10
2017-11-30T14:50:41.049Z,3.00
2017-11-30T14:53:08.522Z,3.00
2017-11-30T14:55:36.039Z,3.00
2017-11-30T14:58:03.425Z,3.00
2017-11-30T15:00:30.895Z,2.90
2017-11-30T15:02:58.333Z,2.80
2017-11-30T15:05:25.789Z,2.80
2017-11-30T15:07:53.237Z,2.80
2017-11-30T15:10:20.694Z,2.70
2017-11-30T15:12:48.126Z,2.70
2017-11-30T15:15:16.337Z,2.80
2017-11-30T15:17:43.805Z,2.80
2017-11-30T15:20:11.257Z,2.80
2017-11-30T15:22:38.702Z,2.90
2017-11-30T15:25:06.161Z,3.00
2017-11-30T15:27:33.604Z,3.10
2017-11-30T15:30:01.071Z,3.20
2017-11-30T15:32:28.552Z,3.20
2017-11-30T15:34:55.989Z,3.10
2017-11-30T15:37:23.448Z,3.10
2017-11-30T15:39:50.888Z,3.00
2017-11-30T15:42:18.348Z,2.90
2017-11-30T15:44:45.792Z,2.90
2017-11-30T15:47:13.249Z,2.90
2017-11-30T15:49:40.746Z,2.90
2017-11-30T15:52:08.197Z,3.00
2017-11-30T15:54:35.646Z,2.90
2017-11-30T15:57:03.106Z,2.90
2017-11-30T15:59:30.550Z,3.00
2017-11-30T16:01:58.001Z,2.90
2017-11-30T16:04:25.485Z,2.80
2017-11-30T16:06:53.041Z,2.80
2017-11-30T16:09:20.495Z,2.90
2017-11-30T16:11:47.950Z,2.90
2017-11-30T16:14:15.420Z,2.80
2017-11-30T16:16:42.979Z,2.80
2017-11-30T16:19:10.418Z,2.80
2017-11-30T16:21:37.877Z,2.70
2017-11-30T16:24:05.317Z,2.80
2017-11-30T16:26:32.763Z,2.80
2017-11-30T16:29:00.263Z,2.80
2017-11-30T16:31:27.823Z,2.90
2017-11-30T16:33:55.269Z,2.80
2017-11-30T16:36:22.729Z,2.60
2017-11-30T16:38:50.169Z,2.50
2017-11-30T16:41:17.618Z,2.50
2017-11-30T16:43:45.074Z,2.40
2017-11-30T16:46:12.524Z,2.40
2017-11-30T16:48:39.972Z,2.40
2017-11-30T16:51:07.417Z,2.20
2017-11-30T16:53:35.643Z,2.10
2017-11-30T16:56:08.801Z,2.20
2017-11-30T16:58:37.014Z,2.20
2017-11-30T17:01:04.454Z,2.20
2017-11-30T17:03:31.913Z,2.30
2017-11-30T17:05:59.349Z,2.20
2017-11-30T17:08:26.810Z,2.20
2017-11-30T17:10:54.293Z,2.20
2017-11-30T17:13:21.754Z,2.20
2017-11-30T17:15:49.188Z,2.20
2017-11-30T17:18:16.645Z,2.10
2017-11-30T17:20:44.116Z,2.20
2017-11-30T17:23:11.569Z,2.10
2017-11-30T17:25:39.013Z,2.20
2017-11-30T17:28:06.466Z,2.10
2017-11-30T17:30:33.913Z,2.10
2017-11-30T17:33:01.406Z,2.00
2017-11-30T17:35:28.853Z,2.00
2017-11-30T17:37:56.309Z,2.00
2017-11-30T17:40:23.754Z,2.00
2017-11-30T17:42:51.209Z,2.10
2017-11-30T17:45:19.633Z,2.00
2017-11-30T17:47:47.883Z,2.10
2017-11-30T17:50:15.441Z,2.00
2017-11-30T17:52:43.001Z,2.10
2017-11-30T17:55:10.450Z,2.10
2017-11-30T17:57:37.889Z,2.20
2017-11-30T18:00:05.349Z,2.20
2017-11-30T18:02:33.393Z,2.10
2017-11-30T18:05:00.910Z,2.10
2017-11-30T18:07:28.464Z,2.10
2017-11-30T18:09:56.935Z,2.00
2017-11-30T18:12:24.412Z,2.00
2017-11-30T18:14:51.865Z,1.80
2017-11-30T18:17:22.077Z,1.80
2017-11-30T18:19:51.647Z,1.70
2017-11-30T18:22:19.421Z,1.80
2017-11-30T18:24:46.878Z,1.80
2017-11-30T18:27:14.333Z,1.70
2017-11-30T18:29:41.800Z,1.70
2017-11-30T18:32:11.480Z,1.70
2017-11-30T18:34:38.933Z,1.70
2017-11-30T18:37:06.377Z,1.70
2017-11-30T18:39:34.602Z,1.60
2017-11-30T18:42:02.419Z,1.60
2017-11-30T18:44:30.642Z,1.60
2017-11-30T18:46:58.695Z,1.60
2017-11-30T18:49:26.152Z,1.60
2017-11-30T18:51:53.604Z,1.60
2017-11-30T18:54:21.052Z,1.60
2017-11-30T18:56:48.500Z,1.50
2017-11-30T18:59:15.958Z,1.50
2017-11-30T19:01:43.404Z,1.50
2017-11-30T19:04:11.654Z,1.50
2017-11-30T19:06:39.101Z,1.50
2017-11-30T19:09:07.533Z,1.50
2017-11-30T19:11:34.980Z,1.40
2017-11-30T19:14:03.210Z,1.40
2017-11-30T19:16:30.662Z,1.40
2017-11-30T19:18:58.114Z,1.50
2017-11-30T19:21:25.569Z,1.50
2017-11-30T19:23:53.023Z,1.40
2017-11-30T19:26:20.481Z,1.50
2017-11-30T19:28:48.648Z,1.60
2017-11-30T19:31:16.109Z,1.70
2017-11-30T19:33:43.554Z,1.70
2017-11-30T19:36:11.007Z,1.60
2017-11-30T19:38:38.461Z,1.50
2017-11-30T19:41:05.911Z,1.50
2017-11-30T19:43:33.354Z,1.70
2017-11-30T19:46:00.806Z,1.60
2017-11-30T19:48:29.017Z,1.60
2017-11-30T19:50:56.473Z,1.50
2017-11-30T19:53:23.925Z,1.50
2017-11-30T19:55:51.380Z,1.50
2017-11-30T19:58:18.838Z,1.40
2017-11-30T20:00:46.289Z,1.40
2017-11-30T20:03:13.742Z,1.30
2017-11-30T20:05:41.237Z,1.20
2017-11-30T20:08:08.684Z,1.40
2017-11-30T20:10:36.229Z,1.40
2017-11-30T20:13:03.677Z,1.30
2017-11-30T20:15:31.132Z,1.10
2017-11-30T20:17:58.579Z,1.00
2017-11-30T20:20:26.025Z,1.00
2017-11-30T20:22:56.189Z,1.00
2017-11-30T20:25:24.652Z,0.90
2017-11-30T20:27:52.097Z,0.80
2017-11-30T20:30:19.591Z,0.70
2017-11-30T20:32:47.308Z,0.70
2017-11-30T20:35:14.754Z,0.60
2017-11-30T20:37:42.973Z,0.60
2017-11-30T20:40:10.417Z,0.60
2017-11-30T20:42:37.864Z,0.70
2017-11-30T20:45:05.325Z,0.60
2017-11-30T20:47:32.778Z,0.50
2017-11-30T20:50:00.226Z,0.50
2017-11-30T20:52:27.730Z,0.50
2017-11-30T20:54:55.122Z,0.60
2017-11-30T20:57:23.344Z,0.50
2017-11-30T20:59:50.879Z,0.50
2017-11-30T21:02:18.321Z,0.40
2017-11-30T21:04:46.802Z,0.30
2017-11-30T21:07:15.191Z,0.20
2017-11-30T21:09:44.003Z,0.10
2017-11-30T21:12:17.121Z,0.10
2017-11-30T21:14:44.569Z,0.00
2017-11-30T21:17:13.032Z,0.20
2017-11-30T21:19:41.520Z,0.20
2017-11-30T21:22:17.181Z,0.10
2017-11-30T21:24:46.133Z,0.10
2017-11-30T21:27:17.237Z,0.00
2017-11-30T21:29:49.581Z,0.00
2017-11-30T21:32:19.385Z,0.00
2017-11-30T21:34:51.394Z,0.00
2017-11-30T21:37:19.609Z,-0.10
2017-11-30T21:39:47.056Z,0.00
2017-11-30T21:42:14.525Z,0.00
2017-11-30T21:44:41.998Z,-0.10
2017-11-30T21:47:10.565Z,-0.10
2017-11-30T21:49:39.839Z,0.00
2017-11-30T21:52:09.145Z,0.10
2017-11-30T21:54:37.878Z,0.20
2017-11-30T21:57:07.357Z,0.20
2017-11-30T22:02:41.605Z,0.10
2017-11-30T22:05:12.361Z,0.10
2017-11-30T22:07:40.609Z,0.10
2017-11-30T22:10:08.597Z,0.10
2017-11-30T22:12:37.606Z,0.00
2017-11-30T22:15:06.537Z,0.20
2017-11-30T22:17:33.990Z,0.20
2017-11-30T22:20:01.578Z,0.10
2017-11-30T22:22:34.181Z,0.10
2017-11-30T22:25:03.502Z,0.00
2017-11-30T22:27:31.740Z,-0.10
2017-11-30T22:30:01.082Z,-0.10
2017-11-30T22:32:28.532Z,-0.10
2017-11-30T22:34:59.590Z,-0.20
2017-11-30T22:37:27.572Z,-0.20
2017-11-30T22:39:55.881Z,-0.10
2017-11-30T22:42:29.164Z,0.00
2017-11-30T22:44:57.000Z,0.10
2017-11-30T22:47:24.436Z,0.10
2017-11-30T22:49:54.687Z,0.20
2017-11-30T22:52:22.125Z,0.20
2017-11-30T22:54:51.521Z,0.20
2017-11-30T22:57:19.489Z,0.20
2017-11-30T22:59:49.997Z,0.20
2017-11-30T23:02:17.601Z,0.20
2017-11-30T23:04:45.157Z,0.40
2017-11-30T23:07:13.818Z,0.40
2017-11-30T23:09:42.041Z,0.50
2017-11-30T23:12:09.493Z,0.50
2017-11-30T23:14:37.345Z,0.50
2017-11-30T23:17:04.780Z,0.50
2017-11-30T23:19:32.234Z,0.40
2017-11-30T23:22:05.262Z,0.30
2017-11-30T23:24:37.445Z,0.30
2017-11-30T23:27:04.994Z,0.30
2017-11-30T23:29:33.462Z,0.30
2017-11-30T23:32:00.902Z,0.20
2017-11-30T23:34:29.496Z,0.20
2017-11-30T23:36:57.542Z,0.20
2017-11-30T23:39:24.988Z,0.10
2017-11-30T23:41:55.394Z,-0.10
2017-11-30T23:44:27.609Z,-0.10
2017-11-30T23:46:55.357Z,-0.10
2017-11-30T23:49:23.717Z,-0.10
2017-11-30T23:51:53.504Z,-0.10
2017-11-30T23:54:22.640Z,-0.10
2017-11-30T23:56:51.894Z,-0.10
2017-11-30T23:59:21.256Z,-0.10
